METAR AND TAF INFORMATION
METAR FOR LEZL
ADDS - METARS form results

(2053 UTC 24 January 2021)
Data provider http://aviationweather.gov/metar/data/
 
METAR text: LEZL 242030Z 23005KT 9999 FEW045 14/10 Q1020 NOSIG
Conditions at: LEZL (SEVILLA (CIV/MIL, ES) observed 2030 UTC 24 January 2021
Temperature: 14.0°C (57°F)
Dewpoint: 10.0°C (50°F) [RH = 77%]
Pressure (altimeter): 30.12 inches Hg (1020.0 mb)
Winds: from the SW (230 degrees) at 6 MPH (5 knots; 2.6 m/s)
Visibility: 6 or more miles (10+ km)
Ceiling: at least 12,000 feet AGL
Clouds: few clouds at 4500 feet AGL
Weather: no significant weather observed at this time

METAR text: LEZL 242000Z 22007KT 9999 SCT044 14/10 Q1019 NOSIG
Conditions at: LEZL (SEVILLA (CIV/MIL, ES) observed 2000 UTC 24 January 2021
Temperature: 14.0°C (57°F)
Dewpoint: 10.0°C (50°F) [RH = 77%]
Pressure (altimeter): 30.09 inches Hg (1019.0 mb)
Winds: from the SW (220 degrees) at 8 MPH (7 knots; 3.6 m/s)
Visibility: 6 or more miles (10+ km)
Ceiling: at least 12,000 feet AGL
Clouds: scattered clouds at 4400 feet AGL
Weather: no significant weather observed at this time

Forecast for: LEZL (SEVILLA (CIV/MIL, ES)
Text: TAF LEZL 242000Z 2421/2521 25006KT 9999 SCT040 TX19/2515Z TN12/2506Z
Forecast period: 2100 UTC 24 January 2021 to 2100 UTC 25 January 2021
Forecast type: FROM: standard forecast or significant change
Winds: from the WSW (250 degrees) at 7 MPH (6 knots; 3.1 m/s)
Visibility: 6 or more miles (10+ km)
Ceiling: at least 12,000 feet AGL
Clouds: scattered clouds at 4000 feet AGL
Weather: no significant weather forecast for this period
Text: PROB40
Forecast period: 0600 to 1200 UTC 25 January 2021
Forecast type: TEMPORARY: The following changes expected for less than half the time period
Visibility: 2.49 miles (4.01 km)
Ceiling: 800 feet AGL
Clouds: broken clouds at 800 feet AGL
Weather: RA DZ BR  (moderate rain, moderate drizzle, mist)

 AIRPORT MAP

 RUNWAY INFORMATION
Runway 09 Runway length 11024 ft Runway width 148 ft
Runway elevation 83 ft Runway displaced threshold 0 ft Runway heading 90
Runway 27 Runway length 11024 ft Runway width 148 ft
Runway elevation 111 ft Runway displaced threshold 0 ft Runway heading 270

 AIRPORT FREQUENCIES
Type APP Name APP Frequency 120 MHZ
Type ATIS Name ATIS Frequency 118.175 MHZ
Type GND Name GND Frequency 121.7 MHZ
Type TWR Name TWR Frequency 118.1 MHZ

 AIRPORT NEAR NAVIGATION AIDS
Type NDB Name Sevilla Frequency 420 KHZ
Type VOR-DME Name Sevilla Frequency 113700 KHZ



Powered by Virtual Airlines Manager [v2.6.2]